createdAt,value
2023-04-26T00:02:22.262Z,7.19
2023-04-26T00:04:58.487Z,7.15
2023-04-26T00:07:26.084Z,7.11
2023-04-26T00:09:53.508Z,7.06
2023-04-26T00:12:20.891Z,7.01
2023-04-26T00:14:48.251Z,6.97
2023-04-26T00:17:16.330Z,6.96
2023-04-26T00:19:44.084Z,6.96
2023-04-26T00:22:11.435Z,6.96
2023-04-26T00:24:38.789Z,6.97
2023-04-26T00:27:09.524Z,6.98
2023-04-26T00:29:37.809Z,6.98
2023-04-26T00:32:05.781Z,6.97
2023-04-26T00:34:37.124Z,6.96
2023-04-26T00:37:05.451Z,6.95
2023-04-26T00:39:32.850Z,6.95
2023-04-26T00:42:00.206Z,6.95
2023-04-26T00:44:27.666Z,6.95
2023-04-26T00:46:55.123Z,6.93
2023-04-26T00:49:23.494Z,6.94
2023-04-26T00:51:54.959Z,6.93
2023-04-26T00:54:22.313Z,6.91
2023-04-26T00:56:52.430Z,6.89
2023-04-26T00:59:22.955Z,6.86
2023-04-26T01:01:50.309Z,6.82
2023-04-26T01:04:18.483Z,6.80
2023-04-26T01:06:46.345Z,6.78
2023-04-26T01:09:16.232Z,6.74
2023-04-26T01:11:44.025Z,6.72
2023-04-26T01:14:12.108Z,6.69
2023-04-26T01:16:41.106Z,6.65
2023-04-26T01:19:13.212Z,6.62
2023-04-26T01:21:40.895Z,6.59
2023-04-26T01:24:10.675Z,6.55
2023-04-26T01:26:45.971Z,6.52
2023-04-26T01:29:15.369Z,6.49
2023-04-26T01:31:42.825Z,6.46
2023-04-26T01:34:10.182Z,6.43
2023-04-26T01:36:38.363Z,6.39
2023-04-26T01:39:05.919Z,6.37
2023-04-26T01:41:33.982Z,6.34
2023-04-26T01:44:01.747Z,6.32
2023-04-26T01:46:29.015Z,6.31
2023-04-26T01:48:57.686Z,6.31
2023-04-26T01:51:25.035Z,6.30
2023-04-26T01:53:52.391Z,6.31
2023-04-26T01:56:20.368Z,6.31
2023-04-26T01:58:47.918Z,6.29
2023-04-26T02:01:15.323Z,6.29
2023-04-26T02:03:45.436Z,6.28
2023-04-26T02:06:12.851Z,6.28
2023-04-26T02:08:40.101Z,6.27
2023-04-26T02:11:07.685Z,6.26
2023-04-26T02:13:36.763Z,6.25
2023-04-26T02:16:04.653Z,6.25
2023-04-26T02:18:32.081Z,6.25
2023-04-26T02:20:59.539Z,6.25
2023-04-26T02:23:26.796Z,6.24
2023-04-26T02:25:54.351Z,6.24
2023-04-26T02:28:21.807Z,6.23
2023-04-26T02:30:49.060Z,6.23
2023-04-26T02:33:16.422Z,6.24
2023-04-26T02:35:43.771Z,6.23
2023-04-26T02:38:11.331Z,6.23
2023-04-26T02:40:38.593Z,6.22
2023-04-26T02:43:07.556Z,6.22
2023-04-26T02:45:34.938Z,6.23
2023-04-26T02:48:02.422Z,6.23
2023-04-26T02:50:30.045Z,6.24
2023-04-26T02:52:57.398Z,6.26
2023-04-26T02:55:24.673Z,6.27
2023-04-26T02:57:52.006Z,6.29
2023-04-26T03:00:19.360Z,6.30
2023-04-26T03:02:46.835Z,6.32
2023-04-26T03:05:14.288Z,6.34
2023-04-26T03:07:41.735Z,6.35
2023-04-26T03:10:10.055Z,6.36
2023-04-26T03:12:37.673Z,6.37
2023-04-26T03:15:06.077Z,6.39
2023-04-26T03:17:33.509Z,6.39
2023-04-26T03:20:02.496Z,6.42
2023-04-26T03:22:30.363Z,6.44
2023-04-26T03:24:57.821Z,6.45
2023-04-26T03:27:26.709Z,6.48
2023-04-26T03:29:54.271Z,6.51
2023-04-26T03:32:22.141Z,6.53
2023-04-26T03:34:50.210Z,6.55
2023-04-26T03:37:17.563Z,6.61
2023-04-26T03:39:46.774Z,6.65
2023-04-26T03:42:14.424Z,6.69
2023-04-26T03:44:41.680Z,6.74
2023-04-26T03:47:09.450Z,6.81
2023-04-26T03:49:37.410Z,6.87
2023-04-26T03:52:04.770Z,6.94
2023-04-26T03:54:32.321Z,7.00
2023-04-26T03:56:59.572Z,7.06
2023-04-26T03:59:27.028Z,7.11
2023-04-26T04:01:54.384Z,7.17
2023-04-26T04:04:22.092Z,7.23
2023-04-26T04:06:50.010Z,7.30
2023-04-26T04:09:18.493Z,7.38
2023-04-26T04:11:47.394Z,7.48
2023-04-26T04:14:14.948Z,7.59
2023-04-26T04:16:42.296Z,7.70
2023-04-26T04:19:09.767Z,7.82
2023-04-26T04:21:37.826Z,7.95
2023-04-26T04:24:06.080Z,8.08
2023-04-26T04:26:33.471Z,8.21
2023-04-26T04:29:09.171Z,8.35
2023-04-26T04:31:40.294Z,8.51
2023-04-26T04:34:09.442Z,8.66
2023-04-26T04:36:41.408Z,8.80
2023-04-26T04:39:13.775Z,8.96
2023-04-26T04:41:48.007Z,9.11
2023-04-26T04:44:16.686Z,9.28
2023-04-26T04:46:44.918Z,9.43
2023-04-26T04:49:16.221Z,9.61
2023-04-26T04:51:43.661Z,9.82
2023-04-26T04:54:34.873Z,10.04
2023-04-26T04:57:03.659Z,10.30
2023-04-26T04:59:33.580Z,10.53
2023-04-26T05:02:01.791Z,10.76
2023-04-26T05:04:29.524Z,11.01
2023-04-26T05:06:57.380Z,11.25
2023-04-26T05:09:24.644Z,11.45
2023-04-26T05:11:52.298Z,11.61
2023-04-26T05:14:20.578Z,11.77
2023-04-26T05:16:48.354Z,11.96
2023-04-26T05:19:15.898Z,12.15
2023-04-26T05:21:43.261Z,12.32
2023-04-26T05:24:10.521Z,12.53
2023-04-26T05:26:37.981Z,12.79
2023-04-26T05:29:08.287Z,12.98
2023-04-26T05:32:01.808Z,13.16
2023-04-26T05:34:48.154Z,13.36
2023-04-26T05:37:17.518Z,13.52
2023-04-26T05:39:44.834Z,13.70
2023-04-26T05:42:12.473Z,13.92
2023-04-26T05:44:40.441Z,14.14
2023-04-26T05:47:08.598Z,14.32
2023-04-26T05:49:36.116Z,14.47
2023-04-26T05:52:04.979Z,14.46
2023-04-26T05:54:32.315Z,14.46
2023-04-26T05:56:59.629Z,14.56
2023-04-26T05:59:31.494Z,14.70
2023-04-26T06:01:59.261Z,14.78
2023-04-26T06:04:26.886Z,14.84
2023-04-26T06:07:07.584Z,14.97
2023-04-26T06:09:34.961Z,15.11
2023-04-26T06:12:02.513Z,15.32
2023-04-26T06:14:31.128Z,15.47
2023-04-26T06:17:02.476Z,15.65
2023-04-26T06:19:30.465Z,15.91
2023-04-26T06:21:57.830Z,16.25
2023-04-26T06:24:26.174Z,16.52
2023-04-26T06:26:54.715Z,16.65
2023-04-26T06:29:22.143Z,16.78
2023-04-26T06:31:49.460Z,16.88
2023-04-26T06:34:18.437Z,17.05
2023-04-26T06:36:46.476Z,17.06
2023-04-26T06:39:14.034Z,16.98
2023-04-26T06:41:43.662Z,17.07
2023-04-26T06:44:11.482Z,17.31
2023-04-26T06:46:42.862Z,17.45
2023-04-26T06:49:11.675Z,17.63
2023-04-26T06:51:39.047Z,17.68
2023-04-26T06:54:06.565Z,17.68
2023-04-26T06:56:33.829Z,17.88
2023-04-26T06:59:02.987Z,18.02
2023-04-26T07:01:33.928Z,18.03
2023-04-26T07:04:08.644Z,18.06
2023-04-26T07:06:36.212Z,18.16
2023-04-26T07:09:04.321Z,18.29
2023-04-26T07:11:31.863Z,18.52
2023-04-26T07:13:59.396Z,18.80
2023-04-26T07:16:27.171Z,19.05
2023-04-26T07:18:58.494Z,19.19
2023-04-26T07:21:27.119Z,19.32
2023-04-26T07:23:58.333Z,19.56
2023-04-26T07:26:26.811Z,19.75
2023-04-26T07:28:54.465Z,19.72
2023-04-26T07:31:21.764Z,19.59
2023-04-26T07:33:49.495Z,19.47
2023-04-26T07:36:16.850Z,19.60
2023-04-26T07:38:44.105Z,19.64
2023-04-26T07:41:13.245Z,19.53
2023-04-26T07:43:40.510Z,19.37
2023-04-26T07:46:08.041Z,19.40
2023-04-26T07:48:35.380Z,19.57
2023-04-26T07:51:10.390Z,19.80
2023-04-26T07:53:38.601Z,20.00
2023-04-26T07:56:07.234Z,19.92
2023-04-26T07:58:36.546Z,19.70
2023-04-26T08:01:04.490Z,19.85
2023-04-26T08:03:32.594Z,20.02
2023-04-26T08:06:00.324Z,20.20
2023-04-26T08:08:28.365Z,20.37
2023-04-26T08:11:14.322Z,20.59
2023-04-26T08:14:00.202Z,20.87
2023-04-26T08:16:27.613Z,21.06
2023-04-26T08:18:56.332Z,21.20
2023-04-26T08:21:23.946Z,21.24
2023-04-26T08:23:51.420Z,21.40
2023-04-26T08:26:19.565Z,21.60
2023-04-26T08:28:47.192Z,21.78
2023-04-26T08:31:15.818Z,21.99
2023-04-26T08:33:44.948Z,22.16
2023-04-26T08:36:13.040Z,22.17
2023-04-26T08:38:40.424Z,22.03
2023-04-26T08:41:08.914Z,21.92
2023-04-26T08:43:37.284Z,21.84
2023-04-26T08:46:06.505Z,21.83
2023-04-26T08:48:34.165Z,21.70
2023-04-26T08:51:01.688Z,21.53
2023-04-26T08:53:28.985Z,21.34
2023-04-26T08:55:56.382Z,21.22
2023-04-26T08:58:23.689Z,21.20
2023-04-26T09:00:51.019Z,21.15
2023-04-26T09:03:18.515Z,21.34
2023-04-26T09:05:46.106Z,21.63
2023-04-26T09:08:18.485Z,21.86
2023-04-26T09:10:47.110Z,21.82
2023-04-26T09:13:14.778Z,21.71
2023-04-26T09:15:42.158Z,21.50
2023-04-26T09:18:22.393Z,21.54
2023-04-26T09:21:03.957Z,21.81
2023-04-26T09:23:32.903Z,22.08
2023-04-26T09:26:21.134Z,22.42
2023-04-26T09:28:49.072Z,22.59
2023-04-26T09:31:39.736Z,22.74
2023-04-26T09:34:07.225Z,22.89
2023-04-26T09:36:47.500Z,23.02
2023-04-26T09:39:15.217Z,23.12
2023-04-26T09:41:44.937Z,23.24
2023-04-26T09:44:23.208Z,23.14
2023-04-26T09:47:02.420Z,23.33
2023-04-26T09:49:43.234Z,23.57
2023-04-26T09:52:10.707Z,23.67
2023-04-26T09:54:45.531Z,23.56
2023-04-26T09:57:14.270Z,23.36
2023-04-26T09:59:48.206Z,23.13
2023-04-26T10:02:27.048Z,22.91
2023-04-26T10:04:57.075Z,22.96
2023-04-26T10:07:25.525Z,22.83
2023-04-26T10:09:52.803Z,22.69
2023-04-26T10:12:20.561Z,22.83
2023-04-26T10:14:48.787Z,23.17
2023-04-26T10:17:16.182Z,23.55
2023-04-26T10:19:44.998Z,23.73
2023-04-26T10:22:18.388Z,23.87
2023-04-26T10:24:45.953Z,23.85
2023-04-26T10:27:14.321Z,23.65
2023-04-26T10:29:54.276Z,23.59
2023-04-26T10:32:22.247Z,23.73
2023-04-26T10:35:13.326Z,24.00
2023-04-26T10:38:00.678Z,24.05
2023-04-26T10:40:32.757Z,23.74
2023-04-26T10:43:10.062Z,23.39
2023-04-26T10:45:37.630Z,23.03
2023-04-26T10:48:31.263Z,22.92
2023-04-26T10:51:02.136Z,22.85
2023-04-26T10:53:45.786Z,22.80
2023-04-26T10:56:28.561Z,22.90
2023-04-26T11:01:46.544Z,23.07
2023-04-26T11:04:14.130Z,23.06
2023-04-26T11:06:55.166Z,23.03
2023-04-26T11:09:41.657Z,22.79
2023-04-26T11:12:13.104Z,22.67
2023-04-26T11:14:44.489Z,22.62
2023-04-26T11:17:12.230Z,22.27
2023-04-26T11:19:41.761Z,22.01
2023-04-26T11:22:09.212Z,21.91
2023-04-26T11:24:39.223Z,21.90
2023-04-26T11:27:10.460Z,21.91
2023-04-26T11:29:38.471Z,21.78
2023-04-26T11:32:05.932Z,21.70
2023-04-26T11:34:34.682Z,21.62
2023-04-26T11:37:02.880Z,21.51
2023-04-26T11:39:34.405Z,21.39
2023-04-26T11:42:08.617Z,21.39
2023-04-26T11:44:36.105Z,21.60
2023-04-26T11:47:06.818Z,21.70
2023-04-26T11:49:36.275Z,21.55
2023-04-26T11:52:05.268Z,21.51
2023-04-26T11:54:34.613Z,21.58
2023-04-26T11:57:05.146Z,21.62
2023-04-26T11:59:32.481Z,21.67
2023-04-26T12:02:01.911Z,21.71
2023-04-26T12:04:30.856Z,21.73
2023-04-26T12:06:58.518Z,21.58
2023-04-26T12:09:30.051Z,21.35
2023-04-26T12:12:02.385Z,20.98
2023-04-26T12:14:38.269Z,20.73
2023-04-26T12:17:06.779Z,20.82
2023-04-26T12:19:34.919Z,20.97
2023-04-26T12:22:02.270Z,21.10
2023-04-26T12:24:40.250Z,21.17
2023-04-26T12:27:09.141Z,21.20
2023-04-26T12:29:36.434Z,21.21
2023-04-26T12:32:04.549Z,21.22
2023-04-26T12:34:32.134Z,21.16
2023-04-26T12:37:00.108Z,21.05
2023-04-26T12:39:27.499Z,21.11
2023-04-26T12:41:55.544Z,21.14
2023-04-26T12:44:23.053Z,21.18
2023-04-26T12:46:51.043Z,21.29
2023-04-26T12:49:18.414Z,21.36
2023-04-26T12:51:46.436Z,21.44
2023-04-26T12:54:13.829Z,21.44
2023-04-26T12:56:44.671Z,21.30
2023-04-26T12:59:12.137Z,21.24
2023-04-26T13:01:39.623Z,21.31
2023-04-26T13:04:07.206Z,21.44
2023-04-26T13:06:34.755Z,21.44
2023-04-26T13:09:02.920Z,21.35
2023-04-26T13:11:30.355Z,21.34
2023-04-26T13:13:58.032Z,21.44
2023-04-26T13:16:25.656Z,21.37
2023-04-26T13:18:52.941Z,21.20
2023-04-26T13:21:20.193Z,20.95
2023-04-26T13:23:47.610Z,20.72
2023-04-26T13:26:20.062Z,20.49
2023-04-26T13:28:47.846Z,20.29
2023-04-26T13:31:17.625Z,20.09
2023-04-26T13:33:47.527Z,19.96
2023-04-26T13:36:16.167Z,19.87
2023-04-26T13:38:43.931Z,19.90
2023-04-26T13:41:11.400Z,20.12
2023-04-26T13:43:38.700Z,20.31
2023-04-26T13:46:06.389Z,20.39
2023-04-26T13:48:33.648Z,20.44
2023-04-26T13:51:01.037Z,20.51
2023-04-26T13:53:28.342Z,20.45
2023-04-26T13:55:55.597Z,20.41
2023-04-26T13:58:22.855Z,20.31
2023-04-26T14:00:50.124Z,20.25
2023-04-26T14:03:17.534Z,20.17
2023-04-26T14:05:44.981Z,20.21
2023-04-26T14:08:13.030Z,20.25
2023-04-26T14:10:40.304Z,20.28
2023-04-26T14:13:07.540Z,20.28
2023-04-26T14:15:34.823Z,20.32
2023-04-26T14:18:02.213Z,20.37
2023-04-26T14:20:29.560Z,20.50
2023-04-26T14:22:56.908Z,20.57
2023-04-26T14:25:24.274Z,20.58
2023-04-26T14:27:53.021Z,20.63
2023-04-26T14:30:21.300Z,20.61
2023-04-26T14:32:48.664Z,20.58
2023-04-26T14:35:15.921Z,20.45
2023-04-26T14:37:43.170Z,20.30
2023-04-26T14:40:11.472Z,20.19
2023-04-26T14:42:44.637Z,20.06
2023-04-26T14:45:12.919Z,20.13
2023-04-26T14:47:40.702Z,20.23
2023-04-26T14:50:10.449Z,20.33
2023-04-26T14:52:37.846Z,20.41
2023-04-26T14:55:06.322Z,20.35
2023-04-26T14:57:34.804Z,20.21
2023-04-26T15:00:07.482Z,20.07
2023-04-26T15:02:34.932Z,19.94
2023-04-26T15:05:05.423Z,19.87
2023-04-26T15:07:33.186Z,19.82
2023-04-26T15:10:01.935Z,19.70
2023-04-26T15:12:29.299Z,19.62
2023-04-26T15:14:56.532Z,19.55
2023-04-26T15:17:24.103Z,19.48
2023-04-26T15:19:51.586Z,19.45
2023-04-26T15:22:18.858Z,19.38
2023-04-26T15:24:46.131Z,19.25
2023-04-26T15:27:13.368Z,19.15
2023-04-26T15:29:40.603Z,19.07
2023-04-26T15:32:07.818Z,18.96
2023-04-26T15:34:43.706Z,18.88
2023-04-26T15:37:11.284Z,18.82
2023-04-26T15:39:38.655Z,18.73
2023-04-26T15:42:06.210Z,18.59
2023-04-26T15:44:33.486Z,18.41
2023-04-26T15:47:01.814Z,18.23
2023-04-26T15:49:29.053Z,18.02
2023-04-26T15:51:56.388Z,17.82
2023-04-26T15:54:24.070Z,17.66
2023-04-26T15:56:51.350Z,17.53
2023-04-26T15:59:18.862Z,17.40
2023-04-26T16:01:46.129Z,17.30
2023-04-26T16:04:14.425Z,17.19
2023-04-26T16:06:42.381Z,17.06
2023-04-26T16:09:24.663Z,16.96
2023-04-26T16:11:52.494Z,16.86
2023-04-26T16:14:19.756Z,16.78
2023-04-26T16:16:47.070Z,16.69
2023-04-26T16:19:14.329Z,16.62
2023-04-26T16:21:41.974Z,16.56
2023-04-26T16:24:09.491Z,16.48
2023-04-26T16:26:36.837Z,16.39
2023-04-26T16:29:04.582Z,16.30
2023-04-26T16:31:32.656Z,16.20
2023-04-26T16:33:59.996Z,16.09
2023-04-26T16:36:27.687Z,16.00
2023-04-26T16:38:55.408Z,15.89
2023-04-26T16:41:23.484Z,15.77
2023-04-26T16:43:52.995Z,15.69
2023-04-26T16:46:20.379Z,15.60
2023-04-26T16:48:47.768Z,15.52
2023-04-26T16:51:15.038Z,15.43
2023-04-26T16:53:42.717Z,15.34
2023-04-26T16:56:10.525Z,15.25
2023-04-26T16:58:38.030Z,15.16
2023-04-26T17:01:05.489Z,15.07
2023-04-26T17:03:33.074Z,14.98
2023-04-26T17:06:00.505Z,14.89
2023-04-26T17:08:27.816Z,14.80
2023-04-26T17:10:55.064Z,14.72
2023-04-26T17:13:22.528Z,14.65
2023-04-26T17:15:50.039Z,14.58
2023-04-26T17:18:17.306Z,14.52
2023-04-26T17:20:44.638Z,14.46
2023-04-26T17:23:12.003Z,14.41
2023-04-26T17:25:39.208Z,14.37
2023-04-26T17:28:06.691Z,14.32
2023-04-26T17:30:33.984Z,14.27
2023-04-26T17:33:01.441Z,14.21
2023-04-26T17:35:28.777Z,14.16
2023-04-26T17:37:56.325Z,14.12
2023-04-26T17:40:23.636Z,14.08
2023-04-26T17:42:50.878Z,14.04
2023-04-26T17:45:18.128Z,14.00
2023-04-26T17:47:46.262Z,13.96
2023-04-26T17:50:13.996Z,13.90
2023-04-26T17:52:41.243Z,13.86
2023-04-26T17:55:10.192Z,13.82
2023-04-26T17:57:56.349Z,13.80
2023-04-26T18:00:42.219Z,13.80
2023-04-26T18:03:09.727Z,13.79
2023-04-26T18:05:37.107Z,13.76
2023-04-26T18:08:07.219Z,13.73
2023-04-26T18:10:34.482Z,13.71
2023-04-26T18:13:02.067Z,13.67
2023-04-26T18:15:29.346Z,13.63
2023-04-26T18:17:56.704Z,13.58
2023-04-26T18:20:24.267Z,13.53
2023-04-26T18:22:51.812Z,13.46
2023-04-26T18:25:19.086Z,13.41
2023-04-26T18:27:47.099Z,13.37
2023-04-26T18:30:14.456Z,13.33
2023-04-26T18:32:41.802Z,13.28
2023-04-26T18:35:09.791Z,13.23
2023-04-26T18:37:38.174Z,13.19
2023-04-26T18:40:07.389Z,13.13
2023-04-26T18:42:34.725Z,13.07
2023-04-26T18:45:02.381Z,13.03
2023-04-26T18:47:29.645Z,13.00
2023-04-26T18:49:57.135Z,12.96
2023-04-26T18:52:24.527Z,12.93
2023-04-26T18:54:51.734Z,12.90
2023-04-26T18:57:22.445Z,12.89
2023-04-26T18:59:49.831Z,12.90
2023-04-26T19:02:17.138Z,12.91
2023-04-26T19:04:44.591Z,12.92
2023-04-26T19:07:11.898Z,12.94
2023-04-26T19:09:50.316Z,12.96
2023-04-26T19:12:20.737Z,12.98
2023-04-26T19:14:48.071Z,12.98
2023-04-26T19:17:15.338Z,12.98
2023-04-26T19:19:42.644Z,12.99
2023-04-26T19:22:09.878Z,12.98
2023-04-26T19:24:37.105Z,12.98
2023-04-26T19:27:04.947Z,12.98
2023-04-26T19:29:32.195Z,12.98
2023-04-26T19:32:00.444Z,12.99
2023-04-26T19:34:28.160Z,13.00
2023-04-26T19:36:55.687Z,13.00
2023-04-26T19:39:23.836Z,13.01
2023-04-26T19:41:51.277Z,13.00
2023-04-26T19:44:18.648Z,13.00
2023-04-26T19:46:46.321Z,13.00
2023-04-26T19:49:13.585Z,12.98
2023-04-26T19:51:40.929Z,12.97
2023-04-26T19:54:08.178Z,12.94
2023-04-26T19:56:35.399Z,12.90
2023-04-26T19:59:02.653Z,12.87
2023-04-26T20:01:30.095Z,12.83
2023-04-26T20:03:57.859Z,12.79
2023-04-26T20:06:25.204Z,12.74
2023-04-26T20:08:52.480Z,12.68
2023-04-26T20:11:20.010Z,12.63
2023-04-26T20:13:47.333Z,12.57
2023-04-26T20:16:14.623Z,12.51
2023-04-26T20:18:41.920Z,12.45
2023-04-26T20:21:09.178Z,12.37
2023-04-26T20:23:36.459Z,12.29
2023-04-26T20:26:04.109Z,12.22
2023-04-26T20:28:31.545Z,12.13
2023-04-26T20:30:58.883Z,12.06
2023-04-26T20:33:26.119Z,12.00
2023-04-26T20:35:53.715Z,11.93
2023-04-26T20:38:21.471Z,11.89
2023-04-26T20:40:49.067Z,11.83
2023-04-26T20:43:16.443Z,11.79
2023-04-26T20:45:43.714Z,11.75
2023-04-26T20:48:10.963Z,11.71
2023-04-26T20:50:38.222Z,11.67
2023-04-26T20:53:05.722Z,11.65
2023-04-26T21:00:33.710Z,11.59
2023-04-26T21:03:01.213Z,11.58
2023-04-26T21:05:28.691Z,11.56
2023-04-26T21:07:56.771Z,11.55
2023-04-26T21:10:42.715Z,11.55
2023-04-26T21:13:10.130Z,11.54
2023-04-26T21:15:37.631Z,11.53
2023-04-26T21:18:05.433Z,11.52
2023-04-26T21:20:53.250Z,11.51
2023-04-26T21:23:54.274Z,11.49
2023-04-26T21:26:34.991Z,11.47
2023-04-26T21:29:04.248Z,11.44
2023-04-26T21:31:31.770Z,11.40
2023-04-26T21:33:59.196Z,11.38
2023-04-26T21:36:27.023Z,11.37
2023-04-26T21:38:54.322Z,11.38
2023-04-26T21:41:21.674Z,11.43
2023-04-26T21:43:50.431Z,11.48
2023-04-26T21:46:17.703Z,11.52
2023-04-26T21:48:45.522Z,11.59
2023-04-26T21:51:12.782Z,11.68
2023-04-26T21:53:43.385Z,11.74
2023-04-26T21:56:10.973Z,11.78
2023-04-26T21:58:38.292Z,11.82
2023-04-26T22:01:10.385Z,11.86
2023-04-26T22:03:38.001Z,11.89
2023-04-26T22:06:07.644Z,11.93
2023-04-26T22:08:35.109Z,11.98
2023-04-26T22:11:03.257Z,12.03
2023-04-26T22:13:31.078Z,12.08
2023-04-26T22:15:58.393Z,12.13
2023-04-26T22:18:26.727Z,12.18
2023-04-26T22:20:54.269Z,12.22
2023-04-26T22:23:21.604Z,12.26
2023-04-26T22:25:48.875Z,12.29
2023-04-26T22:28:16.731Z,12.33
2023-04-26T22:30:44.034Z,12.37
2023-04-26T22:33:12.549Z,12.39
2023-04-26T22:35:39.885Z,12.41
2023-04-26T22:38:07.133Z,12.40
2023-04-26T22:40:34.430Z,12.40
2023-04-26T22:43:02.199Z,12.38
2023-04-26T22:45:29.459Z,12.35
2023-04-26T22:47:56.808Z,12.33
2023-04-26T22:50:24.175Z,12.31
2023-04-26T22:52:51.572Z,12.30
2023-04-26T22:55:18.911Z,12.28
2023-04-26T22:57:46.773Z,12.25
2023-04-26T23:00:14.887Z,12.22
2023-04-26T23:02:42.286Z,12.16
2023-04-26T23:05:10.464Z,12.14
2023-04-26T23:07:38.768Z,12.11
2023-04-26T23:10:06.464Z,12.07
2023-04-26T23:12:33.819Z,12.03
2023-04-26T23:15:01.675Z,11.99
2023-04-26T23:17:28.980Z,11.94
2023-04-26T23:19:56.822Z,11.90
2023-04-26T23:22:24.097Z,11.89
2023-04-26T23:24:51.827Z,11.88
2023-04-26T23:27:21.106Z,11.85
2023-04-26T23:29:50.210Z,11.84
2023-04-26T23:32:17.478Z,11.85
2023-04-26T23:34:44.762Z,11.85
2023-04-26T23:37:12.009Z,11.87
2023-04-26T23:39:39.295Z,11.87
2023-04-26T23:42:06.882Z,11.87
2023-04-26T23:44:34.135Z,11.86
2023-04-26T23:47:01.373Z,11.84
2023-04-26T23:49:28.672Z,11.83
2023-04-26T23:51:56.136Z,11.83
2023-04-26T23:54:23.421Z,11.82
2023-04-26T23:56:51.039Z,11.82
2023-04-26T23:59:18.550Z,11.82
